sensor_id;sensor_type;location;lat;lon;timestamp;temperature;humidity
34522;DHT22;25561;48.888;8.736;2022-11-23T06:50:19;4.70;99.90
34522;DHT22;25561;48.888;8.736;2022-11-23T06:53:21;4.90;99.90
34522;DHT22;25561;48.888;8.736;2022-11-23T06:56:23;5.10;99.90
34522;DHT22;25561;48.888;8.736;2022-11-23T06:59:25;5.30;99.90
34522;DHT22;25561;48.888;8.736;2022-11-23T07:02:27;5.40;99.90
34522;DHT22;25561;48.888;8.736;2022-11-23T07:05:29;5.50;99.90
34522;DHT22;25561;48.888;8.736;2022-11-23T07:08:33;5.50;99.90
34522;DHT22;25561;48.888;8.736;2022-11-23T07:11:36;5.50;99.90
34522;DHT22;25561;48.888;8.736;2022-11-23T07:14:38;5.40;99.90
34522;DHT22;25561;48.888;8.736;2022-11-23T07:17:41;5.40;99.90
34522;DHT22;25561;48.888;8.736;2022-11-23T07:20:45;5.40;99.90
34522;DHT22;25561;48.888;8.736;2022-11-23T07:23:47;5.40;99.90
34522;DHT22;25561;48.888;8.736;2022-11-23T07:26:49;5.40;99.90
34522;DHT22;25561;48.888;8.736;2022-11-23T07:29:53;5.50;99.90
34522;DHT22;25561;48.888;8.736;2022-11-23T07:33:00;5.40;99.90
34522;DHT22;25561;48.888;8.736;2022-11-23T07:36:03;5.50;99.90
34522;DHT22;25561;48.888;8.736;2022-11-23T07:39:08;5.50;99.90
34522;DHT22;25561;48.888;8.736;2022-11-23T07:42:10;5.60;99.90
34522;DHT22;25561;48.888;8.736;2022-11-23T07:45:33;5.60;99.90
34522;DHT22;25561;48.888;8.736;2022-11-23T07:48:35;5.70;99.90
34522;DHT22;25561;48.888;8.736;2022-11-23T07:51:38;5.80;99.90
34522;DHT22;25561;48.888;8.736;2022-11-23T07:54:40;5.90;99.90
34522;DHT22;25561;48.888;8.736;2022-11-23T07:57:42;6.10;99.90
34522;DHT22;25561;48.888;8.736;2022-11-23T08:00:44;6.40;99.90
34522;DHT22;25561;48.888;8.736;2022-11-23T08:03:47;7.20;99.90
34522;DHT22;25561;48.888;8.736;2022-11-23T08:06:49;7.30;99.90
34522;DHT22;25561;48.888;8.736;2022-11-23T08:09:51;7.30;99.90
34522;DHT22;25561;48.888;8.736;2022-11-23T08:12:58;7.40;99.90
34522;DHT22;25561;48.888;8.736;2022-11-23T08:16:01;7.70;99.90
34522;DHT22;25561;48.888;8.736;2022-11-23T08:19:04;8.20;99.90
34522;DHT22;25561;48.888;8.736;2022-11-23T08:22:06;8.40;99.90
34522;DHT22;25561;48.888;8.736;2022-11-23T08:25:10;8.50;99.90
34522;DHT22;25561;48.888;8.736;2022-11-23T08:28:13;8.40;99.90
34522;DHT22;25561;48.888;8.736;2022-11-23T08:31:16;8.40;99.90
34522;DHT22;25561;48.888;8.736;2022-11-23T08:34:18;8.20;99.90
34522;DHT22;25561;48.888;8.736;2022-11-23T08:37:22;8.30;99.90
34522;DHT22;25561;48.888;8.736;2022-11-23T08:40:24;8.20;99.90
34522;DHT22;25561;48.888;8.736;2022-11-23T08:43:27;8.50;99.90
34522;DHT22;25561;48.888;8.736;2022-11-23T08:46:31;8.90;99.90
34522;DHT22;25561;48.888;8.736;2022-11-23T08:49:33;9.30;99.90
34522;DHT22;25561;48.888;8.736;2022-11-23T08:52:35;10.20;99.90
34522;DHT22;25561;48.888;8.736;2022-11-23T08:55:37;11.40;99.90
34522;DHT22;25561;48.888;8.736;2022-11-23T08:58:40;12.70;99.90
34522;DHT22;25561;48.888;8.736;2022-11-23T09:01:43;12.90;99.90
34522;DHT22;25561;48.888;8.736;2022-11-23T09:04:46;13.30;99.90
34522;DHT22;25561;48.888;8.736;2022-11-23T09:07:49;13.70;99.90
34522;DHT22;25561;48.888;8.736;2022-11-23T09:10:51;13.10;99.90
34522;DHT22;25561;48.888;8.736;2022-11-23T09:13:54;12.90;99.90
34522;DHT22;25561;48.888;8.736;2022-11-23T09:17:06;13.10;99.90
34522;DHT22;25561;48.888;8.736;2022-11-23T09:20:12;13.30;99.90
34522;DHT22;25561;48.888;8.736;2022-11-23T09:23:14;13.10;99.90
34522;DHT22;25561;48.888;8.736;2022-11-23T09:26:20;13.60;99.90
34522;DHT22;25561;48.888;8.736;2022-11-23T09:29:23;14.10;99.90
34522;DHT22;25561;48.888;8.736;2022-11-23T09:32:27;13.70;99.90
34522;DHT22;25561;48.888;8.736;2022-11-23T09:35:29;13.60;99.90
34522;DHT22;25561;48.888;8.736;2022-11-23T09:38:31;13.00;99.90
34522;DHT22;25561;48.888;8.736;2022-11-23T09:45:27;13.00;99.90
34522;DHT22;25561;48.888;8.736;2022-11-23T09:48:56;12.70;99.90
34522;DHT22;25561;48.888;8.736;2022-11-23T09:52:19;12.60;99.90
34522;DHT22;25561;48.888;8.736;2022-11-23T09:55:38;12.90;99.90
34522;DHT22;25561;48.888;8.736;2022-11-23T09:58:51;13.20;99.90
34522;DHT22;25561;48.888;8.736;2022-11-23T10:01:56;13.90;99.90
34522;DHT22;25561;48.888;8.736;2022-11-23T10:05:03;14.20;99.90
34522;DHT22;25561;48.888;8.736;2022-11-23T10:08:37;14.30;99.90
34522;DHT22;25561;48.888;8.736;2022-11-23T10:15:37;12.50;99.90
34522;DHT22;25561;48.888;8.736;2022-11-23T10:18:49;12.60;99.90
34522;DHT22;25561;48.888;8.736;2022-11-23T10:22:29;13.10;99.90
34522;DHT22;25561;48.888;8.736;2022-11-23T10:25:41;13.40;99.90
34522;DHT22;25561;48.888;8.736;2022-11-23T10:28:48;13.20;99.90
34522;DHT22;25561;48.888;8.736;2022-11-23T10:31:52;12.90;99.90
34522;DHT22;25561;48.888;8.736;2022-11-23T10:35:12;12.40;99.90
34522;DHT22;25561;48.888;8.736;2022-11-23T10:38:18;12.10;99.90
34522;DHT22;25561;48.888;8.736;2022-11-23T10:41:20;12.80;99.90
34522;DHT22;25561;48.888;8.736;2022-11-23T10:44:30;12.70;99.90
34522;DHT22;25561;48.888;8.736;2022-11-23T10:47:38;12.40;99.90
34522;DHT22;25561;48.888;8.736;2022-11-23T10:50:44;12.00;99.90
34522;DHT22;25561;48.888;8.736;2022-11-23T10:53:52;12.30;99.90
34522;DHT22;25561;48.888;8.736;2022-11-23T10:57:02;12.90;99.90
34522;DHT22;25561;48.888;8.736;2022-11-23T11:00:28;12.90;99.90
34522;DHT22;25561;48.888;8.736;2022-11-23T11:03:34;12.00;99.90
34522;DHT22;25561;48.888;8.736;2022-11-23T11:06:37;12.00;99.90
34522;DHT22;25561;48.888;8.736;2022-11-23T11:09:40;12.10;99.90
34522;DHT22;25561;48.888;8.736;2022-11-23T11:12:50;12.50;99.90
34522;DHT22;25561;48.888;8.736;2022-11-23T11:16:02;13.20;99.90
34522;DHT22;25561;48.888;8.736;2022-11-23T11:22:34;12.30;99.90
34522;DHT22;25561;48.888;8.736;2022-11-23T11:25:37;12.10;99.90
34522;DHT22;25561;48.888;8.736;2022-11-23T11:28:47;11.70;99.90
34522;DHT22;25561;48.888;8.736;2022-11-23T11:31:56;12.00;99.90
34522;DHT22;25561;48.888;8.736;2022-11-23T11:35:39;11.70;99.90
34522;DHT22;25561;48.888;8.736;2022-11-23T11:38:33;11.20;99.90
34522;DHT22;25561;48.888;8.736;2022-11-23T11:41:37;10.60;99.90
34522;DHT22;25561;48.888;8.736;2022-11-23T11:44:41;10.50;99.90
34522;DHT22;25561;48.888;8.736;2022-11-23T11:47:55;10.20;99.90
34522;DHT22;25561;48.888;8.736;2022-11-23T11:51:07;10.40;99.90
34522;DHT22;25561;48.888;8.736;2022-11-23T11:54:30;10.30;99.90
34522;DHT22;25561;48.888;8.736;2022-11-23T11:57:38;10.40;99.90
34522;DHT22;25561;48.888;8.736;2022-11-23T12:00:45;10.10;99.90
34522;DHT22;25561;48.888;8.736;2022-11-23T12:03:59;10.00;99.90
34522;DHT22;25561;48.888;8.736;2022-11-23T12:07:11;9.90;99.90
34522;DHT22;25561;48.888;8.736;2022-11-23T12:10:18;9.90;99.90
34522;DHT22;25561;48.888;8.736;2022-11-23T12:13:23;9.90;99.90
34522;DHT22;25561;48.888;8.736;2022-11-23T12:16:54;9.90;99.90
34522;DHT22;25561;48.888;8.736;2022-11-23T12:20:36;10.00;99.90
34522;DHT22;25561;48.888;8.736;2022-11-23T12:31:13;9.90;99.90
34522;DHT22;25561;48.888;8.736;2022-11-23T12:34:37;10.00;99.90
34522;DHT22;25561;48.888;8.736;2022-11-23T12:41:49;9.70;99.90
34522;DHT22;25561;48.888;8.736;2022-11-23T12:48:48;9.60;99.90
34522;DHT22;25561;48.888;8.736;2022-11-23T12:58:31;9.50;99.90
34522;DHT22;25561;48.888;8.736;2022-11-23T13:01:38;9.50;99.90
34522;DHT22;25561;48.888;8.736;2022-11-23T13:05:06;9.70;99.90
34522;DHT22;25561;48.888;8.736;2022-11-23T13:08:49;9.80;99.90
34522;DHT22;25561;48.888;8.736;2022-11-23T13:12:23;9.70;99.90
34522;DHT22;25561;48.888;8.736;2022-11-23T13:16:16;9.90;99.90
34522;DHT22;25561;48.888;8.736;2022-11-23T13:22:42;9.60;99.90
34522;DHT22;25561;48.888;8.736;2022-11-23T13:26:38;9.60;99.90
34522;DHT22;25561;48.888;8.736;2022-11-23T13:32:56;9.60;99.90
34522;DHT22;25561;48.888;8.736;2022-11-23T13:35:59;9.60;99.90
34522;DHT22;25561;48.888;8.736;2022-11-23T13:40:03;9.70;99.90
34522;DHT22;25561;48.888;8.736;2022-11-23T13:42:58;9.60;99.90
34522;DHT22;25561;48.888;8.736;2022-11-23T13:46:23;9.50;99.90
34522;DHT22;25561;48.888;8.736;2022-11-23T13:49:48;9.60;99.90
34522;DHT22;25561;48.888;8.736;2022-11-23T13:52:52;9.60;99.90
34522;DHT22;25561;48.888;8.736;2022-11-23T13:55:58;9.60;99.90
34522;DHT22;25561;48.888;8.736;2022-11-23T14:02:27;9.60;99.90
34522;DHT22;25561;48.888;8.736;2022-11-23T14:05:52;9.60;99.90
34522;DHT22;25561;48.888;8.736;2022-11-23T14:12:47;9.60;99.90
34522;DHT22;25561;48.888;8.736;2022-11-23T14:15:54;9.40;99.90
34522;DHT22;25561;48.888;8.736;2022-11-23T14:19:05;9.50;99.90
34522;DHT22;25561;48.888;8.736;2022-11-23T14:22:38;9.40;99.90
34522;DHT22;25561;48.888;8.736;2022-11-23T14:29:40;9.30;99.90
34522;DHT22;25561;48.888;8.736;2022-11-23T14:33:01;9.30;99.90
34522;DHT22;25561;48.888;8.736;2022-11-23T14:40:04;9.30;99.90
34522;DHT22;25561;48.888;8.736;2022-11-23T14:43:13;9.30;99.90
34522;DHT22;25561;48.888;8.736;2022-11-23T14:46:19;9.30;99.90
34522;DHT22;25561;48.888;8.736;2022-11-23T14:49:22;9.20;99.90
34522;DHT22;25561;48.888;8.736;2022-11-23T14:52:30;9.20;99.90
34522;DHT22;25561;48.888;8.736;2022-11-23T14:55:32;9.10;99.90
34522;DHT22;25561;48.888;8.736;2022-11-23T14:58:35;9.00;99.90
34522;DHT22;25561;48.888;8.736;2022-11-23T15:01:37;8.90;99.90
34522;DHT22;25561;48.888;8.736;2022-11-23T15:05:02;8.80;99.90
34522;DHT22;25561;48.888;8.736;2022-11-23T15:08:25;8.70;99.90
34522;DHT22;25561;48.888;8.736;2022-11-23T15:11:31;8.70;99.90
34522;DHT22;25561;48.888;8.736;2022-11-23T15:14:34;8.60;99.90
34522;DHT22;25561;48.888;8.736;2022-11-23T15:17:36;8.60;99.90
34522;DHT22;25561;48.888;8.736;2022-11-23T15:20:51;8.60;99.90
34522;DHT22;25561;48.888;8.736;2022-11-23T15:23:54;8.70;99.90
34522;DHT22;25561;48.888;8.736;2022-11-23T15:27:04;8.80;99.90
34522;DHT22;25561;48.888;8.736;2022-11-23T15:30:20;8.80;99.90
34522;DHT22;25561;48.888;8.736;2022-11-23T15:33:22;8.80;99.90
34522;DHT22;25561;48.888;8.736;2022-11-23T15:36:30;8.80;99.90
34522;DHT22;25561;48.888;8.736;2022-11-23T15:39:32;8.90;99.90
34522;DHT22;25561;48.888;8.736;2022-11-23T15:42:36;8.90;99.90
34522;DHT22;25561;48.888;8.736;2022-11-23T15:45:57;9.00;99.90
34522;DHT22;25561;48.888;8.736;2022-11-23T15:49:03;8.90;99.90
34522;DHT22;25561;48.888;8.736;2022-11-23T15:52:06;9.00;99.90
34522;DHT22;25561;48.888;8.736;2022-11-23T15:55:13;9.00;99.90
34522;DHT22;25561;48.888;8.736;2022-11-23T15:58:17;9.10;99.90
34522;DHT22;25561;48.888;8.736;2022-11-23T16:01:20;9.10;99.90
34522;DHT22;25561;48.888;8.736;2022-11-23T16:04:29;9.10;99.90
34522;DHT22;25561;48.888;8.736;2022-11-23T16:07:33;9.10;99.90
34522;DHT22;25561;48.888;8.736;2022-11-23T16:10:53;9.10;99.90
34522;DHT22;25561;48.888;8.736;2022-11-23T16:14:16;9.20;99.90
34522;DHT22;25561;48.888;8.736;2022-11-23T16:17:21;9.30;99.90
34522;DHT22;25561;48.888;8.736;2022-11-23T16:20:25;9.30;99.90
34522;DHT22;25561;48.888;8.736;2022-11-23T16:23:40;9.20;99.90
34522;DHT22;25561;48.888;8.736;2022-11-23T16:26:44;9.30;99.90
34522;DHT22;25561;48.888;8.736;2022-11-23T16:29:48;9.20;99.90
34522;DHT22;25561;48.888;8.736;2022-11-23T16:32:50;9.20;99.90
34522;DHT22;25561;48.888;8.736;2022-11-23T16:35:52;8.90;99.90
34522;DHT22;25561;48.888;8.736;2022-11-23T16:38:55;8.60;99.90
34522;DHT22;25561;48.888;8.736;2022-11-23T16:42:03;8.50;99.90
34522;DHT22;25561;48.888;8.736;2022-11-23T16:45:05;8.50;99.90
34522;DHT22;25561;48.888;8.736;2022-11-23T16:51:29;8.20;99.90
34522;DHT22;25561;48.888;8.736;2022-11-23T16:54:30;8.10;99.90
34522;DHT22;25561;48.888;8.736;2022-11-23T16:57:33;8.10;99.90
